sensor_id;sensor_type;location;lat;lon;timestamp;P1;durP1;ratioP1;P2;durP2;ratioP2
38715;SDS011;24833;49.324;8.694;2023-04-03T00:01:19;1.02;;;0.95;;
38715;SDS011;24833;49.324;8.694;2023-04-03T00:03:46;1.45;;;1.10;;
38715;SDS011;24833;49.324;8.694;2023-04-03T00:06:14;1.10;;;1.00;;
38715;SDS011;24833;49.324;8.694;2023-04-03T00:08:41;1.00;;;0.90;;
38715;SDS011;24833;49.324;8.694;2023-04-03T00:11:08;1.20;;;0.93;;
38715;SDS011;24833;49.324;8.694;2023-04-03T00:13:36;2.25;;;1.10;;
38715;SDS011;24833;49.324;8.694;2023-04-03T00:16:05;2.08;;;0.95;;
38715;SDS011;24833;49.324;8.694;2023-04-03T00:18:35;1.08;;;0.98;;
38715;SDS011;24833;49.324;8.694;2023-04-03T00:21:03;1.33;;;1.23;;
38715;SDS011;24833;49.324;8.694;2023-04-03T00:23:31;0.90;;;0.90;;
38715;SDS011;24833;49.324;8.694;2023-04-03T00:25:59;1.85;;;1.00;;
38715;SDS011;24833;49.324;8.694;2023-04-03T00:28:26;0.80;;;0.80;;
38715;SDS011;24833;49.324;8.694;2023-04-03T00:30:53;2.47;;;0.98;;
38715;SDS011;24833;49.324;8.694;2023-04-03T00:33:20;1.05;;;0.95;;
38715;SDS011;24833;49.324;8.694;2023-04-03T00:35:48;1.20;;;1.10;;
38715;SDS011;24833;49.324;8.694;2023-04-03T00:38:16;1.55;;;1.00;;
38715;SDS011;24833;49.324;8.694;2023-04-03T00:40:44;1.73;;;1.00;;
38715;SDS011;24833;49.324;8.694;2023-04-03T00:43:15;1.05;;;0.95;;
38715;SDS011;24833;49.324;8.694;2023-04-03T00:45:51;2.45;;;1.00;;
38715;SDS011;24833;49.324;8.694;2023-04-03T00:48:23;1.25;;;1.13;;
38715;SDS011;24833;49.324;8.694;2023-04-03T00:51:22;1.00;;;0.90;;
38715;SDS011;24833;49.324;8.694;2023-04-03T00:53:56;1.23;;;1.00;;
38715;SDS011;24833;49.324;8.694;2023-04-03T00:56:27;1.85;;;0.90;;
38715;SDS011;24833;49.324;8.694;2023-04-03T00:59:00;1.65;;;0.90;;
38715;SDS011;24833;49.324;8.694;2023-04-03T01:01:39;1.27;;;1.10;;
38715;SDS011;24833;49.324;8.694;2023-04-03T01:04:24;1.42;;;0.90;;
38715;SDS011;24833;49.324;8.694;2023-04-03T01:07:04;1.67;;;1.27;;
38715;SDS011;24833;49.324;8.694;2023-04-03T01:09:56;1.35;;;0.85;;
38715;SDS011;24833;49.324;8.694;2023-04-03T01:15:05;0.93;;;0.85;;
38715;SDS011;24833;49.324;8.694;2023-04-03T01:25:49;0.70;;;0.70;;
38715;SDS011;24833;49.324;8.694;2023-04-03T01:28:23;1.30;;;1.10;;
38715;SDS011;24833;49.324;8.694;2023-04-03T01:34:03;1.20;;;0.90;;
38715;SDS011;24833;49.324;8.694;2023-04-03T01:36:31;1.00;;;1.00;;
38715;SDS011;24833;49.324;8.694;2023-04-03T01:38:59;1.60;;;1.05;;
38715;SDS011;24833;49.324;8.694;2023-04-03T01:41:27;1.73;;;1.00;;
38715;SDS011;24833;49.324;8.694;2023-04-03T01:44:01;1.55;;;1.08;;
38715;SDS011;24833;49.324;8.694;2023-04-03T01:46:30;1.15;;;0.85;;
38715;SDS011;24833;49.324;8.694;2023-04-03T01:48:57;1.85;;;1.15;;
38715;SDS011;24833;49.324;8.694;2023-04-03T01:51:24;1.00;;;0.90;;
38715;SDS011;24833;49.324;8.694;2023-04-03T01:53:51;1.60;;;1.00;;
38715;SDS011;24833;49.324;8.694;2023-04-03T01:56:18;1.42;;;1.05;;
38715;SDS011;24833;49.324;8.694;2023-04-03T01:58:46;1.10;;;1.00;;
38715;SDS011;24833;49.324;8.694;2023-04-03T02:01:13;1.23;;;1.00;;
38715;SDS011;24833;49.324;8.694;2023-04-03T02:03:41;1.10;;;0.88;;
38715;SDS011;24833;49.324;8.694;2023-04-03T02:06:08;1.35;;;1.00;;
38715;SDS011;24833;49.324;8.694;2023-04-03T02:08:38;0.95;;;0.85;;
38715;SDS011;24833;49.324;8.694;2023-04-03T02:11:05;0.80;;;0.80;;
38715;SDS011;24833;49.324;8.694;2023-04-03T02:13:32;2.13;;;1.02;;
38715;SDS011;24833;49.324;8.694;2023-04-03T02:16:02;1.52;;;0.93;;
38715;SDS011;24833;49.324;8.694;2023-04-03T02:18:34;1.08;;;1.00;;
38715;SDS011;24833;49.324;8.694;2023-04-03T02:21:01;0.88;;;0.82;;
38715;SDS011;24833;49.324;8.694;2023-04-03T02:23:28;1.65;;;1.00;;
38715;SDS011;24833;49.324;8.694;2023-04-03T02:26:08;2.38;;;0.90;;
38715;SDS011;24833;49.324;8.694;2023-04-03T02:28:38;0.90;;;0.80;;
38715;SDS011;24833;49.324;8.694;2023-04-03T02:31:07;0.95;;;0.93;;
38715;SDS011;24833;49.324;8.694;2023-04-03T02:33:37;0.82;;;0.82;;
38715;SDS011;24833;49.324;8.694;2023-04-03T02:36:08;0.75;;;0.75;;
38715;SDS011;24833;49.324;8.694;2023-04-03T02:38:38;0.70;;;0.70;;
38715;SDS011;24833;49.324;8.694;2023-04-03T02:41:06;0.90;;;0.80;;
38715;SDS011;24833;49.324;8.694;2023-04-03T02:43:36;1.75;;;0.73;;
38715;SDS011;24833;49.324;8.694;2023-04-03T02:46:05;1.00;;;0.90;;
38715;SDS011;24833;49.324;8.694;2023-04-03T02:48:32;1.63;;;0.95;;
38715;SDS011;24833;49.324;8.694;2023-04-03T02:50:59;1.27;;;0.93;;
38715;SDS011;24833;49.324;8.694;2023-04-03T02:53:27;3.13;;;1.08;;
38715;SDS011;24833;49.324;8.694;2023-04-03T02:55:54;1.45;;;1.02;;
38715;SDS011;24833;49.324;8.694;2023-04-03T02:58:21;1.20;;;0.90;;
38715;SDS011;24833;49.324;8.694;2023-04-03T03:00:49;1.10;;;0.80;;
38715;SDS011;24833;49.324;8.694;2023-04-03T03:03:16;1.20;;;1.10;;
38715;SDS011;24833;49.324;8.694;2023-04-03T03:05:43;1.75;;;1.20;;
38715;SDS011;24833;49.324;8.694;2023-04-03T03:08:10;1.20;;;0.90;;
38715;SDS011;24833;49.324;8.694;2023-04-03T03:10:37;1.73;;;0.90;;
38715;SDS011;24833;49.324;8.694;2023-04-03T03:13:06;0.98;;;0.85;;
38715;SDS011;24833;49.324;8.694;2023-04-03T03:15:33;0.90;;;0.90;;
38715;SDS011;24833;49.324;8.694;2023-04-03T03:18:02;1.33;;;1.15;;
38715;SDS011;24833;49.324;8.694;2023-04-03T03:20:29;1.00;;;0.90;;
38715;SDS011;24833;49.324;8.694;2023-04-03T03:22:57;1.25;;;1.00;;
38715;SDS011;24833;49.324;8.694;2023-04-03T03:25:24;3.58;;;1.00;;
38715;SDS011;24833;49.324;8.694;2023-04-03T03:27:51;0.70;;;0.70;;
38715;SDS011;24833;49.324;8.694;2023-04-03T03:30:18;1.70;;;1.00;;
38715;SDS011;24833;49.324;8.694;2023-04-03T03:32:46;0.93;;;0.82;;
38715;SDS011;24833;49.324;8.694;2023-04-03T03:35:13;0.98;;;0.82;;
38715;SDS011;24833;49.324;8.694;2023-04-03T03:37:40;1.30;;;1.00;;
38715;SDS011;24833;49.324;8.694;2023-04-03T03:40:07;1.35;;;1.00;;
38715;SDS011;24833;49.324;8.694;2023-04-03T03:42:36;1.17;;;0.80;;
38715;SDS011;24833;49.324;8.694;2023-04-03T03:45:03;0.90;;;0.90;;
38715;SDS011;24833;49.324;8.694;2023-04-03T03:47:31;2.25;;;1.17;;
38715;SDS011;24833;49.324;8.694;2023-04-03T03:49:58;1.10;;;1.00;;
38715;SDS011;24833;49.324;8.694;2023-04-03T03:52:25;0.90;;;0.90;;
38715;SDS011;24833;49.324;8.694;2023-04-03T03:54:53;1.20;;;1.10;;
38715;SDS011;24833;49.324;8.694;2023-04-03T03:57:20;1.10;;;0.98;;
38715;SDS011;24833;49.324;8.694;2023-04-03T03:59:47;2.25;;;0.80;;
38715;SDS011;24833;49.324;8.694;2023-04-03T04:02:17;1.40;;;1.25;;
38715;SDS011;24833;49.324;8.694;2023-04-03T04:04:44;1.17;;;1.08;;
38715;SDS011;24833;49.324;8.694;2023-04-03T04:07:12;1.13;;;1.02;;
38715;SDS011;24833;49.324;8.694;2023-04-03T04:09:39;0.95;;;0.70;;
38715;SDS011;24833;49.324;8.694;2023-04-03T04:12:07;1.35;;;1.02;;
38715;SDS011;24833;49.324;8.694;2023-04-03T04:14:35;1.23;;;1.10;;
38715;SDS011;24833;49.324;8.694;2023-04-03T04:17:03;2.15;;;1.17;;
38715;SDS011;24833;49.324;8.694;2023-04-03T04:19:30;1.10;;;1.00;;
38715;SDS011;24833;49.324;8.694;2023-04-03T04:21:57;1.40;;;1.10;;
38715;SDS011;24833;49.324;8.694;2023-04-03T04:24:25;1.80;;;1.27;;
38715;SDS011;24833;49.324;8.694;2023-04-03T04:26:53;1.17;;;0.90;;
38715;SDS011;24833;49.324;8.694;2023-04-03T04:29:21;1.08;;;0.82;;
38715;SDS011;24833;49.324;8.694;2023-04-03T04:31:50;0.80;;;0.80;;
38715;SDS011;24833;49.324;8.694;2023-04-03T04:34:17;1.15;;;1.02;;
38715;SDS011;24833;49.324;8.694;2023-04-03T04:36:44;1.73;;;1.23;;
38715;SDS011;24833;49.324;8.694;2023-04-03T04:39:13;1.55;;;1.00;;
38715;SDS011;24833;49.324;8.694;2023-04-03T04:41:40;2.15;;;1.05;;
38715;SDS011;24833;49.324;8.694;2023-04-03T04:44:08;1.05;;;0.80;;
38715;SDS011;24833;49.324;8.694;2023-04-03T04:46:35;1.42;;;0.90;;
38715;SDS011;24833;49.324;8.694;2023-04-03T04:49:04;0.80;;;0.80;;
38715;SDS011;24833;49.324;8.694;2023-04-03T04:51:32;1.10;;;1.00;;
38715;SDS011;24833;49.324;8.694;2023-04-03T04:54:14;0.68;;;0.68;;
38715;SDS011;24833;49.324;8.694;2023-04-03T04:56:42;1.85;;;1.27;;
38715;SDS011;24833;49.324;8.694;2023-04-03T04:59:09;1.92;;;1.05;;
38715;SDS011;24833;49.324;8.694;2023-04-03T05:01:36;1.05;;;0.95;;
38715;SDS011;24833;49.324;8.694;2023-04-03T05:04:08;1.17;;;1.08;;
38715;SDS011;24833;49.324;8.694;2023-04-03T05:06:36;1.23;;;1.10;;
38715;SDS011;24833;49.324;8.694;2023-04-03T05:09:07;1.10;;;1.00;;
38715;SDS011;24833;49.324;8.694;2023-04-03T05:11:35;1.33;;;1.10;;
38715;SDS011;24833;49.324;8.694;2023-04-03T05:14:03;1.00;;;0.90;;
38715;SDS011;24833;49.324;8.694;2023-04-03T05:16:34;1.23;;;0.93;;
38715;SDS011;24833;49.324;8.694;2023-04-03T05:19:01;1.25;;;1.02;;
38715;SDS011;24833;49.324;8.694;2023-04-03T05:21:29;0.70;;;0.70;;
38715;SDS011;24833;49.324;8.694;2023-04-03T05:24:02;0.82;;;0.80;;
38715;SDS011;24833;49.324;8.694;2023-04-03T05:26:32;1.15;;;1.05;;
38715;SDS011;24833;49.324;8.694;2023-04-03T05:29:00;1.23;;;1.13;;
38715;SDS011;24833;49.324;8.694;2023-04-03T05:31:27;0.90;;;0.90;;
38715;SDS011;24833;49.324;8.694;2023-04-03T05:33:56;1.10;;;0.90;;
38715;SDS011;24833;49.324;8.694;2023-04-03T05:36:26;0.98;;;0.90;;
38715;SDS011;24833;49.324;8.694;2023-04-03T05:38:58;0.80;;;0.80;;
38715;SDS011;24833;49.324;8.694;2023-04-03T05:41:25;1.17;;;1.08;;
38715;SDS011;24833;49.324;8.694;2023-04-03T05:43:52;2.53;;;1.05;;
38715;SDS011;24833;49.324;8.694;2023-04-03T05:46:21;1.52;;;1.20;;
38715;SDS011;24833;49.324;8.694;2023-04-03T05:48:53;0.90;;;0.90;;
38715;SDS011;24833;49.324;8.694;2023-04-03T05:51:24;2.35;;;1.02;;
38715;SDS011;24833;49.324;8.694;2023-04-03T05:54:12;0.98;;;0.85;;
38715;SDS011;24833;49.324;8.694;2023-04-03T05:56:55;1.50;;;0.98;;
38715;SDS011;24833;49.324;8.694;2023-04-03T05:59:23;3.58;;;1.23;;
38715;SDS011;24833;49.324;8.694;2023-04-03T06:01:52;1.20;;;1.10;;
38715;SDS011;24833;49.324;8.694;2023-04-03T06:04:19;0.85;;;0.85;;
38715;SDS011;24833;49.324;8.694;2023-04-03T06:09:20;0.85;;;0.85;;
38715;SDS011;24833;49.324;8.694;2023-04-03T06:11:49;0.98;;;0.98;;
38715;SDS011;24833;49.324;8.694;2023-04-03T06:14:16;2.00;;;1.50;;
38715;SDS011;24833;49.324;8.694;2023-04-03T06:16:43;1.55;;;1.35;;
38715;SDS011;24833;49.324;8.694;2023-04-03T06:19:11;1.13;;;1.02;;
38715;SDS011;24833;49.324;8.694;2023-04-03T06:21:44;2.83;;;1.35;;
38715;SDS011;24833;49.324;8.694;2023-04-03T06:24:12;2.25;;;1.35;;
38715;SDS011;24833;49.324;8.694;2023-04-03T06:26:42;2.42;;;1.40;;
38715;SDS011;24833;49.324;8.694;2023-04-03T06:29:10;2.15;;;1.30;;
38715;SDS011;24833;49.324;8.694;2023-04-03T06:31:37;2.17;;;1.40;;
38715;SDS011;24833;49.324;8.694;2023-04-03T06:34:04;1.40;;;1.30;;
38715;SDS011;24833;49.324;8.694;2023-04-03T06:36:35;1.67;;;1.52;;
38715;SDS011;24833;49.324;8.694;2023-04-03T06:39:02;2.28;;;1.45;;
38715;SDS011;24833;49.324;8.694;2023-04-03T06:41:29;3.63;;;1.70;;
38715;SDS011;24833;49.324;8.694;2023-04-03T06:43:57;2.08;;;1.65;;
38715;SDS011;24833;49.324;8.694;2023-04-03T06:46:26;2.00;;;1.63;;
38715;SDS011;24833;49.324;8.694;2023-04-03T06:48:53;2.35;;;1.60;;
38715;SDS011;24833;49.324;8.694;2023-04-03T06:51:29;2.65;;;1.80;;
38715;SDS011;24833;49.324;8.694;2023-04-03T06:53:57;1.90;;;1.65;;
38715;SDS011;24833;49.324;8.694;2023-04-03T06:56:26;3.45;;;1.65;;
38715;SDS011;24833;49.324;8.694;2023-04-03T06:58:53;2.03;;;1.27;;
38715;SDS011;24833;49.324;8.694;2023-04-03T07:01:24;2.27;;;1.47;;
38715;SDS011;24833;49.324;8.694;2023-04-03T07:03:54;2.97;;;1.60;;
38715;SDS011;24833;49.324;8.694;2023-04-03T07:06:22;1.95;;;1.63;;
38715;SDS011;24833;49.324;8.694;2023-04-03T07:08:49;2.25;;;1.75;;
38715;SDS011;24833;49.324;8.694;2023-04-03T07:11:16;1.50;;;1.40;;
38715;SDS011;24833;49.324;8.694;2023-04-03T07:13:44;2.05;;;1.60;;
38715;SDS011;24833;49.324;8.694;2023-04-03T07:16:11;3.72;;;2.15;;
38715;SDS011;24833;49.324;8.694;2023-04-03T07:18:38;3.63;;;1.52;;
38715;SDS011;24833;49.324;8.694;2023-04-03T07:21:06;3.38;;;1.52;;
38715;SDS011;24833;49.324;8.694;2023-04-03T07:23:33;3.50;;;1.90;;
38715;SDS011;24833;49.324;8.694;2023-04-03T07:26:00;2.47;;;1.50;;
38715;SDS011;24833;49.324;8.694;2023-04-03T07:28:27;3.15;;;1.40;;
38715;SDS011;24833;49.324;8.694;2023-04-03T07:31:03;2.17;;;1.58;;
38715;SDS011;24833;49.324;8.694;2023-04-03T07:33:35;2.00;;;1.40;;
38715;SDS011;24833;49.324;8.694;2023-04-03T07:36:03;2.92;;;1.60;;
38715;SDS011;24833;49.324;8.694;2023-04-03T07:38:33;1.80;;;1.40;;
38715;SDS011;24833;49.324;8.694;2023-04-03T07:41:02;2.97;;;1.20;;
38715;SDS011;24833;49.324;8.694;2023-04-03T07:43:30;3.47;;;1.50;;
38715;SDS011;24833;49.324;8.694;2023-04-03T07:45:58;2.33;;;1.30;;
38715;SDS011;24833;49.324;8.694;2023-04-03T07:48:25;2.10;;;1.25;;
38715;SDS011;24833;49.324;8.694;2023-04-03T07:50:52;2.20;;;1.23;;
38715;SDS011;24833;49.324;8.694;2023-04-03T07:53:19;1.70;;;1.02;;
38715;SDS011;24833;49.324;8.694;2023-04-03T07:55:47;2.53;;;1.33;;
38715;SDS011;24833;49.324;8.694;2023-04-03T07:58:18;1.63;;;1.05;;
38715;SDS011;24833;49.324;8.694;2023-04-03T08:00:45;2.03;;;1.15;;
38715;SDS011;24833;49.324;8.694;2023-04-03T08:03:13;4.57;;;1.38;;
38715;SDS011;24833;49.324;8.694;2023-04-03T08:05:47;1.63;;;1.10;;
38715;SDS011;24833;49.324;8.694;2023-04-03T08:08:17;2.83;;;1.20;;
38715;SDS011;24833;49.324;8.694;2023-04-03T08:10:52;3.22;;;1.55;;
38715;SDS011;24833;49.324;8.694;2023-04-03T08:13:20;4.13;;;1.70;;
38715;SDS011;24833;49.324;8.694;2023-04-03T08:15:48;2.00;;;1.30;;
38715;SDS011;24833;49.324;8.694;2023-04-03T08:18:15;1.67;;;1.15;;
38715;SDS011;24833;49.324;8.694;2023-04-03T08:20:43;1.45;;;1.10;;
38715;SDS011;24833;49.324;8.694;2023-04-03T08:23:10;1.70;;;1.20;;
38715;SDS011;24833;49.324;8.694;2023-04-03T08:25:38;0.80;;;0.80;;
38715;SDS011;24833;49.324;8.694;2023-04-03T08:28:07;2.70;;;1.75;;
38715;SDS011;24833;49.324;8.694;2023-04-03T08:30:35;1.30;;;0.88;;
38715;SDS011;24833;49.324;8.694;2023-04-03T08:33:06;1.80;;;0.68;;
38715;SDS011;24833;49.324;8.694;2023-04-03T08:35:37;2.42;;;1.00;;
38715;SDS011;24833;49.324;8.694;2023-04-03T08:38:09;2.25;;;1.05;;
38715;SDS011;24833;49.324;8.694;2023-04-03T08:40:37;0.80;;;0.80;;
38715;SDS011;24833;49.324;8.694;2023-04-03T08:45:59;2.35;;;1.13;;
38715;SDS011;24833;49.324;8.694;2023-04-03T08:48:35;1.88;;;0.73;;
38715;SDS011;24833;49.324;8.694;2023-04-03T08:51:10;2.63;;;1.00;;
38715;SDS011;24833;49.324;8.694;2023-04-03T08:53:56;1.25;;;0.80;;
38715;SDS011;24833;49.324;8.694;2023-04-03T08:56:41;1.83;;;1.02;;
38715;SDS011;24833;49.324;8.694;2023-04-03T08:59:12;1.83;;;0.80;;
38715;SDS011;24833;49.324;8.694;2023-04-03T09:01:48;1.27;;;0.90;;
38715;SDS011;24833;49.324;8.694;2023-04-03T09:04:17;1.35;;;0.90;;
38715;SDS011;24833;49.324;8.694;2023-04-03T09:06:46;0.70;;;0.70;;
38715;SDS011;24833;49.324;8.694;2023-04-03T09:09:32;1.92;;;1.10;;
38715;SDS011;24833;49.324;8.694;2023-04-03T09:12:18;2.60;;;0.85;;
38715;SDS011;24833;49.324;8.694;2023-04-03T09:15:09;1.55;;;0.90;;
38715;SDS011;24833;49.324;8.694;2023-04-03T09:20:58;0.70;;;0.55;;
38715;SDS011;24833;49.324;8.694;2023-04-03T09:23:43;1.38;;;0.82;;
38715;SDS011;24833;49.324;8.694;2023-04-03T09:29:21;3.90;;;0.70;;
38715;SDS011;24833;49.324;8.694;2023-04-03T09:31:52;1.65;;;0.88;;
38715;SDS011;24833;49.324;8.694;2023-04-03T09:34:27;1.45;;;0.88;;
38715;SDS011;24833;49.324;8.694;2023-04-03T09:37:02;0.80;;;0.80;;
38715;SDS011;24833;49.324;8.694;2023-04-03T09:42:23;1.50;;;0.60;;
38715;SDS011;24833;49.324;8.694;2023-04-03T09:44:58;2.35;;;0.98;;
38715;SDS011;24833;49.324;8.694;2023-04-03T09:47:48;1.40;;;0.80;;
38715;SDS011;24833;49.324;8.694;2023-04-03T09:50:21;1.77;;;0.73;;
38715;SDS011;24833;49.324;8.694;2023-04-03T09:52:50;1.05;;;0.90;;
38715;SDS011;24833;49.324;8.694;2023-04-03T09:55:25;2.40;;;0.77;;
38715;SDS011;24833;49.324;8.694;2023-04-03T09:58:04;1.23;;;0.80;;
38715;SDS011;24833;49.324;8.694;2023-04-03T10:00:53;1.40;;;0.60;;
38715;SDS011;24833;49.324;8.694;2023-04-03T10:03:24;1.13;;;0.68;;
38715;SDS011;24833;49.324;8.694;2023-04-03T10:06:03;0.60;;;0.60;;
38715;SDS011;24833;49.324;8.694;2023-04-03T10:08:51;1.15;;;0.80;;
38715;SDS011;24833;49.324;8.694;2023-04-03T10:11:27;1.05;;;0.60;;
38715;SDS011;24833;49.324;8.694;2023-04-03T10:13:58;0.98;;;0.98;;
38715;SDS011;24833;49.324;8.694;2023-04-03T10:16:32;1.65;;;0.93;;
38715;SDS011;24833;49.324;8.694;2023-04-03T10:22:19;2.17;;;0.80;;
38715;SDS011;24833;49.324;8.694;2023-04-03T10:33:38;1.05;;;0.60;;
38715;SDS011;24833;49.324;8.694;2023-04-03T10:39:32;1.58;;;0.80;;
38715;SDS011;24833;49.324;8.694;2023-04-03T10:42:33;4.55;;;0.90;;
38715;SDS011;24833;49.324;8.694;2023-04-03T10:45:30;1.33;;;0.60;;
38715;SDS011;24833;49.324;8.694;2023-04-03T10:48:16;0.82;;;0.57;;
38715;SDS011;24833;49.324;8.694;2023-04-03T10:53:52;1.02;;;0.70;;
38715;SDS011;24833;49.324;8.694;2023-04-03T10:56:44;2.38;;;0.95;;
38715;SDS011;24833;49.324;8.694;2023-04-03T11:02:49;0.85;;;0.50;;
38715;SDS011;24833;49.324;8.694;2023-04-03T11:05:39;2.72;;;0.90;;
38715;SDS011;24833;49.324;8.694;2023-04-03T11:08:36;2.38;;;0.77;;
38715;SDS011;24833;49.324;8.694;2023-04-03T11:11:41;0.88;;;0.73;;
38715;SDS011;24833;49.324;8.694;2023-04-03T11:14:13;1.17;;;0.63;;
38715;SDS011;24833;49.324;8.694;2023-04-03T11:17:28;1.30;;;0.75;;
38715;SDS011;24833;49.324;8.694;2023-04-03T11:19:52;1.27;;;0.68;;
38715;SDS011;24833;49.324;8.694;2023-04-03T11:22:30;0.88;;;0.73;;
38715;SDS011;24833;49.324;8.694;2023-04-03T11:25:23;0.80;;;0.80;;
38715;SDS011;24833;49.324;8.694;2023-04-03T11:27:56;1.60;;;0.73;;
38715;SDS011;24833;49.324;8.694;2023-04-03T11:30:33;1.73;;;0.95;;
38715;SDS011;24833;49.324;8.694;2023-04-03T11:36:25;1.50;;;0.93;;
38715;SDS011;24833;49.324;8.694;2023-04-03T11:39:09;1.23;;;0.70;;
38715;SDS011;24833;49.324;8.694;2023-04-03T11:41:49;0.88;;;0.60;;
38715;SDS011;24833;49.324;8.694;2023-04-03T11:47:04;1.90;;;0.80;;
38715;SDS011;24833;49.324;8.694;2023-04-03T11:53:00;1.08;;;0.85;;
38715;SDS011;24833;49.324;8.694;2023-04-03T12:05:55;1.00;;;0.80;;
38715;SDS011;24833;49.324;8.694;2023-04-03T12:08:47;1.85;;;0.88;;
38715;SDS011;24833;49.324;8.694;2023-04-03T12:11:31;1.85;;;0.98;;
38715;SDS011;24833;49.324;8.694;2023-04-03T12:14:03;1.00;;;0.80;;
38715;SDS011;24833;49.324;8.694;2023-04-03T12:19:27;1.88;;;0.90;;
38715;SDS011;24833;49.324;8.694;2023-04-03T12:22:08;2.30;;;0.90;;
38715;SDS011;24833;49.324;8.694;2023-04-03T12:24:43;1.85;;;1.15;;
38715;SDS011;24833;49.324;8.694;2023-04-03T12:27:27;1.08;;;0.90;;
38715;SDS011;24833;49.324;8.694;2023-04-03T12:30:22;1.95;;;0.80;;
38715;SDS011;24833;49.324;8.694;2023-04-03T12:36:28;1.05;;;0.70;;
38715;SDS011;24833;49.324;8.694;2023-04-03T12:47:22;1.08;;;0.80;;
38715;SDS011;24833;49.324;8.694;2023-04-03T12:50:03;2.63;;;0.90;;
38715;SDS011;24833;49.324;8.694;2023-04-03T12:52:44;1.27;;;1.02;;
38715;SDS011;24833;49.324;8.694;2023-04-03T12:55:18;2.08;;;0.95;;
38715;SDS011;24833;49.324;8.694;2023-04-03T12:57:47;1.67;;;0.70;;
38715;SDS011;24833;49.324;8.694;2023-04-03T13:00:34;2.80;;;0.98;;
38715;SDS011;24833;49.324;8.694;2023-04-03T13:03:05;2.80;;;1.00;;
38715;SDS011;24833;49.324;8.694;2023-04-03T13:05:46;3.08;;;0.90;;
38715;SDS011;24833;49.324;8.694;2023-04-03T13:08:13;1.63;;;0.85;;
38715;SDS011;24833;49.324;8.694;2023-04-03T13:11:06;1.50;;;0.90;;
38715;SDS011;24833;49.324;8.694;2023-04-03T13:13:38;1.88;;;0.88;;
38715;SDS011;24833;49.324;8.694;2023-04-03T13:16:09;2.03;;;1.02;;
38715;SDS011;24833;49.324;8.694;2023-04-03T13:18:39;2.50;;;1.13;;
38715;SDS011;24833;49.324;8.694;2023-04-03T13:21:08;2.63;;;1.10;;
38715;SDS011;24833;49.324;8.694;2023-04-03T13:23:45;3.80;;;0.93;;
38715;SDS011;24833;49.324;8.694;2023-04-03T13:26:24;2.40;;;1.17;;
38715;SDS011;24833;49.324;8.694;2023-04-03T13:29:00;1.55;;;0.80;;
38715;SDS011;24833;49.324;8.694;2023-04-03T13:31:32;2.08;;;1.00;;
38715;SDS011;24833;49.324;8.694;2023-04-03T13:36:40;1.40;;;1.08;;
38715;SDS011;24833;49.324;8.694;2023-04-03T13:41:45;0.88;;;0.77;;
38715;SDS011;24833;49.324;8.694;2023-04-03T13:44:29;1.88;;;0.73;;
38715;SDS011;24833;49.324;8.694;2023-04-03T13:49:42;0.90;;;0.68;;
38715;SDS011;24833;49.324;8.694;2023-04-03T13:55:01;0.70;;;0.70;;
38715;SDS011;24833;49.324;8.694;2023-04-03T13:57:56;0.93;;;0.70;;
38715;SDS011;24833;49.324;8.694;2023-04-03T14:03:24;1.38;;;0.80;;
38715;SDS011;24833;49.324;8.694;2023-04-03T14:05:59;1.45;;;0.90;;
38715;SDS011;24833;49.324;8.694;2023-04-03T14:08:27;0.77;;;0.68;;
38715;SDS011;24833;49.324;8.694;2023-04-03T14:11:09;1.30;;;0.82;;
38715;SDS011;24833;49.324;8.694;2023-04-03T14:13:41;1.38;;;0.80;;
38715;SDS011;24833;49.324;8.694;2023-04-03T14:16:13;2.45;;;0.88;;
38715;SDS011;24833;49.324;8.694;2023-04-03T14:18:44;1.90;;;0.82;;
38715;SDS011;24833;49.324;8.694;2023-04-03T14:21:14;1.92;;;1.13;;
38715;SDS011;24833;49.324;8.694;2023-04-03T14:23:43;1.10;;;0.90;;
38715;SDS011;24833;49.324;8.694;2023-04-03T14:26:12;1.90;;;0.93;;
38715;SDS011;24833;49.324;8.694;2023-04-03T14:28:44;1.45;;;0.80;;
38715;SDS011;24833;49.324;8.694;2023-04-03T14:31:14;1.83;;;1.00;;
38715;SDS011;24833;49.324;8.694;2023-04-03T14:33:42;2.20;;;0.95;;
38715;SDS011;24833;49.324;8.694;2023-04-03T14:41:08;2.08;;;1.00;;
38715;SDS011;24833;49.324;8.694;2023-04-03T14:43:42;1.85;;;0.80;;
38715;SDS011;24833;49.324;8.694;2023-04-03T14:46:15;1.45;;;0.95;;
38715;SDS011;24833;49.324;8.694;2023-04-03T14:49:12;0.80;;;0.70;;
38715;SDS011;24833;49.324;8.694;2023-04-03T14:51:44;1.45;;;0.75;;
38715;SDS011;24833;49.324;8.694;2023-04-03T14:54:12;2.17;;;0.82;;
38715;SDS011;24833;49.324;8.694;2023-04-03T14:56:51;1.65;;;0.75;;
38715;SDS011;24833;49.324;8.694;2023-04-03T14:59:20;1.50;;;0.68;;
38715;SDS011;24833;49.324;8.694;2023-04-03T15:01:48;1.10;;;1.00;;
38715;SDS011;24833;49.324;8.694;2023-04-03T15:04:16;2.13;;;1.08;;
38715;SDS011;24833;49.324;8.694;2023-04-03T15:06:47;1.10;;;1.00;;
38715;SDS011;24833;49.324;8.694;2023-04-03T15:09:23;1.92;;;1.02;;
38715;SDS011;24833;49.324;8.694;2023-04-03T15:11:54;2.38;;;1.20;;
38715;SDS011;24833;49.324;8.694;2023-04-03T15:14:22;2.08;;;1.10;;
38715;SDS011;24833;49.324;8.694;2023-04-03T15:17:03;1.30;;;1.00;;
38715;SDS011;24833;49.324;8.694;2023-04-03T15:19:33;1.63;;;1.10;;
38715;SDS011;24833;49.324;8.694;2023-04-03T15:22:05;0.93;;;0.93;;
38715;SDS011;24833;49.324;8.694;2023-04-03T15:24:32;1.65;;;0.95;;
38715;SDS011;24833;49.324;8.694;2023-04-03T15:26:59;1.15;;;0.90;;
38715;SDS011;24833;49.324;8.694;2023-04-03T15:29:27;2.35;;;0.70;;
38715;SDS011;24833;49.324;8.694;2023-04-03T15:31:54;1.00;;;0.90;;
38715;SDS011;24833;49.324;8.694;2023-04-03T15:34:21;1.23;;;0.77;;
38715;SDS011;24833;49.324;8.694;2023-04-03T15:36:49;1.67;;;0.95;;
38715;SDS011;24833;49.324;8.694;2023-04-03T15:39:19;1.40;;;0.90;;
38715;SDS011;24833;49.324;8.694;2023-04-03T15:41:47;1.23;;;1.00;;
38715;SDS011;24833;49.324;8.694;2023-04-03T15:44:14;1.75;;;1.00;;
38715;SDS011;24833;49.324;8.694;2023-04-03T15:46:44;1.70;;;0.95;;
38715;SDS011;24833;49.324;8.694;2023-04-03T15:49:13;1.55;;;0.80;;
38715;SDS011;24833;49.324;8.694;2023-04-03T15:51:40;1.20;;;0.73;;
38715;SDS011;24833;49.324;8.694;2023-04-03T15:54:07;1.55;;;0.90;;
38715;SDS011;24833;49.324;8.694;2023-04-03T15:56:34;1.27;;;1.10;;
38715;SDS011;24833;49.324;8.694;2023-04-03T15:59:01;1.90;;;1.02;;
38715;SDS011;24833;49.324;8.694;2023-04-03T16:01:28;2.72;;;0.82;;
38715;SDS011;24833;49.324;8.694;2023-04-03T16:03:55;2.00;;;0.90;;
38715;SDS011;24833;49.324;8.694;2023-04-03T16:06:23;1.80;;;1.05;;
38715;SDS011;24833;49.324;8.694;2023-04-03T16:08:51;2.83;;;0.90;;
38715;SDS011;24833;49.324;8.694;2023-04-03T16:11:23;1.80;;;1.00;;
38715;SDS011;24833;49.324;8.694;2023-04-03T16:13:52;1.17;;;0.60;;
38715;SDS011;24833;49.324;8.694;2023-04-03T16:16:21;0.70;;;0.60;;
38715;SDS011;24833;49.324;8.694;2023-04-03T16:18:50;1.23;;;0.57;;
38715;SDS011;24833;49.324;8.694;2023-04-03T16:21:17;0.95;;;0.57;;
38715;SDS011;24833;49.324;8.694;2023-04-03T16:23:45;1.00;;;0.75;;
38715;SDS011;24833;49.324;8.694;2023-04-03T16:26:12;1.75;;;1.05;;
38715;SDS011;24833;49.324;8.694;2023-04-03T16:28:40;1.23;;;0.70;;
38715;SDS011;24833;49.324;8.694;2023-04-03T16:31:07;3.40;;;0.90;;
38715;SDS011;24833;49.324;8.694;2023-04-03T16:33:35;1.90;;;0.75;;
38715;SDS011;24833;49.324;8.694;2023-04-03T16:36:03;1.13;;;0.60;;
38715;SDS011;24833;49.324;8.694;2023-04-03T16:38:31;1.30;;;0.88;;
38715;SDS011;24833;49.324;8.694;2023-04-03T16:40:58;1.13;;;0.68;;
38715;SDS011;24833;49.324;8.694;2023-04-03T16:43:28;1.05;;;0.50;;
38715;SDS011;24833;49.324;8.694;2023-04-03T16:45:55;1.08;;;0.68;;
38715;SDS011;24833;49.324;8.694;2023-04-03T16:48:23;0.70;;;0.40;;
38715;SDS011;24833;49.324;8.694;2023-04-03T16:50:49;1.05;;;0.70;;
38715;SDS011;24833;49.324;8.694;2023-04-03T16:53:23;0.50;;;0.50;;
38715;SDS011;24833;49.324;8.694;2023-04-03T16:55:51;1.00;;;0.80;;
38715;SDS011;24833;49.324;8.694;2023-04-03T16:58:18;0.43;;;0.43;;